Meteo Giornale » Osservazioni meteo Australia » Canberra
ore: 06:26 - Osservazioni Meteo Canberra
Lat. 35° 18' S Lon. 149° 11' E Alt. 575 metri s.l.m.
2 °C
Poco Nuvoloso
Temp. 24 Ore
1 °C
21 °C
Nord
0 Km/h
Dew point 2 °C
Umidità 100 %
Visibilità 6 Km
Il sole sorge alle ore 06:22
Il sole tramonta alle ore 17:43
| Data e Ora | Cielo e Fenomeni | T °C | DP °C | Um. % | Pres. hPa | Vis. km | Vento km/h | |
|---|---|---|---|---|---|---|---|---|
| Oggi h: 06:26 | Poco Nuvoloso | 2 | 2 | 100 | 1026 | 6 | N 0 | |
| Oggi h: 06:00 | Poco Nuvoloso | 1 | 1 | 100 | 1026 | 10 | N 0 | |
| Oggi h: 05:50 | Sereno | 2 | 2 | 100 | 1026 | 10 | N 0 | |
| Oggi h: 05:37 | Foschia | 3 | 2 | 93 | 1026 | 1 | N 0 | |
| Oggi h: 05:30 | Nebbia | 2 | 2 | 100 | 1026 | 0.4 | N 0 | |
| Oggi h: 05:26 | Nebbia | 2 | 2 | 100 | 1026 | 0.8 | N 0 | |
| Oggi h: 05:23 | Foschia | 2 | 2 | 100 | 1026 | 5 | N 0 | |
| Oggi h: 05:18 | Poco Nuvoloso | 2 | 2 | 100 | 1026 | 10 | N 0 | |
| Oggi h: 05:06 | Foschia | 3 | 3 | 100 | 1026 | 1 | N 0 | |
| Oggi h: 05:00 | Nebbia | 3 | 3 | 100 | 1026 | 0.45 | N 0 | |
| Oggi h: 04:43 | Nebbia | 3 | 3 | 100 | 1026 | 0.8 | N 0 | |
| Oggi h: 04:31 | Foschia | 3 | 3 | 100 | 1027 | 1 | N 0 | |
| Oggi h: 04:30 | Nebbia | 3 | 3 | 100 | 1027 | 0.8 | N 0 | |
| Oggi h: 04:16 | Nebbia | 3 | 3 | 100 | 1027 | 0.9 | N 0 | |
| Oggi h: 04:00 | Foschia | 3 | 3 | 100 | 1027 | 4 | N 0 | |
| Oggi h: 03:52 | Foschia | 4 | 4 | 100 | 1027 | 1 | N 0 | |
| Oggi h: 03:46 | Nebbia | 4 | 4 | 100 | 1027 | 0.9 | N 0 | |
| Oggi h: 03:44 | Foschia | 4 | 4 | 100 | 1027 | 1 | N 0 | |
| Oggi h: 03:42 | Nebbia | 4 | 4 | 100 | 1027 | 0.9 | N 0 | |
| Oggi h: 03:33 | Foschia | 4 | 4 | 100 | 1027 | 5 | N 0 | |
| Oggi h: 03:00 | Sereno | 4 | 4 | 100 | 1027 | 10 | N 0 | |
| Oggi h: 02:30 | Sereno | 4 | 4 | 100 | 1027 | 10 | N 0 | |
| Oggi h: 02:00 | Sereno | 4 | 4 | 100 | 1028 | 10 | N 0 | |
| Oggi h: 01:30 | Sereno | 5 | 5 | 100 | 1028 | 10 | N 0 | |
| Oggi h: 01:00 | Sereno | 5 | 5 | 100 | 1028 | 10 | N 0 | |
| Oggi h: 00:30 | Sereno | 6 | 5 | 93 | 1028 | 10 | N 0 | |
| Oggi h: 00:00 | Sereno | 6 | 6 | 100 | 1028 | 10 | N 0 | |
| Ieri h: 23:30 | Sereno | 6 | 6 | 100 | 1028 | 10 | N 0 | |
| Ieri h: 23:00 | Sereno | 7 | 7 | 100 | 1029 | 10 | N 0 | |
| Ieri h: 22:30 | Sereno | 6 | 5 | 93 | 1029 | 10 | N 0 | |
| Ieri h: 22:00 | Sereno | 7 | 5 | 87 | 1029 | 10 | N 0 | |
| Ieri h: 21:30 | Sereno | 7 | 5 | 87 | 1029 | 10 | N 0 | |
| Ieri h: 21:00 | Sereno | 9 | 7 | 87 | 1029 | 10 | E 7.4 | |
| Ieri h: 20:30 | Sereno | 9 | 5 | 75 | 1029 | 10 | N 5.5 | |
| Ieri h: 20:00 | Sereno | 8 | 4 | 75 | 1029 | 10 | N 5.5 | |
| Ieri h: 19:30 | Sereno | 13 | 8 | 71 | 1029 | 10 | N 11.1 | |
| Ieri h: 19:00 | Sereno | 14 | 8 | 67 | 1029 | 10 | N 11.1 | |
| Ieri h: 18:30 | Sereno | 13 | 6 | 62 | 1029 | 10 | N 13 | |
| Ieri h: 18:00 | Sereno | 15 | 7 | 58 | 1028 | 10 | N/NO 11.1 | |
| Ieri h: 17:30 | Sereno | 16 | 6 | 51 | 1028 | 10 | N/NO 16.7 | |
| Ieri h: 17:00 | Sereno | 18 | 4 | 39 | 1028 | 10 | N/NO 18.5 | |
| Ieri h: 16:30 | Sereno | 19 | 2 | 32 | 1028 | 10 | N/NO 22.2 | |
| Ieri h: 16:00 | Sereno | 20 | 3 | 32 | 1028 | 10 | N/NO 20.3 | |
| Ieri h: 15:30 | Sereno | 21 | 2 | 28 | 1028 | 10 | N/NO 16.7 | |
| Ieri h: 15:00 | Sereno | 21 | 3 | 30 | 1029 | 10 | N/NO 16.7 | |
| Ieri h: 14:30 | Sereno | 21 | 1 | 26 | 1029 | 10 | N/NO 16.7 | |
| Ieri h: 14:00 | Sereno | 21 | 1 | 26 | 1029 | 10 | O 13 | |
| Ieri h: 13:30 | Sereno | 21 | 2 | 28 | 1029 | 10 | NO 13 | |
| Ieri h: 13:00 | Sereno | 21 | 3 | 30 | 1030 | 10 | N 5.5 | |
| Ieri h: 12:30 | Sereno | 20 | -2 | 22 | 1030 | 10 | N 7.4 | |
| Ieri h: 12:00 | Sereno | 19 | 2 | 32 | 1030 | 10 | O/NO 7.4 | |
| Ieri h: 11:30 | Sereno | 18 | 4 | 39 | 1031 | 10 | N 1.8 | |
| Ieri h: 11:00 | Sereno | 16 | 5 | 47 | 1031 | 10 | N 5.5 | |
| Ieri h: 10:30 | Sereno | 15 | 6 | 54 | 1032 | 10 | NO 7.4 | |
| Ieri h: 10:00 | Sereno | 13 | 6 | 62 | 1032 | 10 | N 1.8 | |
| Ieri h: 09:30 | Sereno | 11 | 6 | 71 | 1032 | 10 | N 0 | |
| Ieri h: 09:00 | Sereno | 10 | 5 | 71 | 1032 | 10 | N 3.7 | |
| Ieri h: 08:30 | Sereno | 8 | 4 | 75 | 1032 | 10 | S/SE 7.4 | |
| Ieri h: 08:00 | Sereno | 7 | 5 | 87 | 1032 | 10 | N 5.5 | |
| Ieri h: 07:30 | Sereno | 4 | 4 | 100 | 1032 | 10 | N 1.8 | |
| Ieri h: 07:00 | Sereno | 2 | 2 | 100 | 1031 | 10 | N 0 | |



